Time;durP1;ratioP1;P1;durP2;ratioP2;P2;SDS_P1;SDS_P2;PMS_P1;PMS_P2;Temp;Humidity;BMP_temperature;BMP_pressure;BME280_temperature;BME280_humidity;BME280_pressure;Samples;Min_cycle;Max_cycle;Signal;HPM_P1;HPM_P2
2022/03/26 00:02:17;;;;;;;40.20;26.05;;;9.90;63.50;;;;;;5076228;28;20289;-66
2022/03/26 00:04:43;;;;;;;37.47;25.70;;;9.80;63.60;;;;;;5076316;28;20206;-65
2022/03/26 00:07:10;;;;;;;42.20;26.95;;;9.70;64.10;;;;;;5075708;28;20203;-66
2022/03/26 00:09:37;;;;;;;39.63;26.08;;;9.60;64.60;;;;;;5076317;28;20316;-65
2022/03/26 00:12:06;;;;;;;40.05;25.77;;;9.60;64.90;;;;;;5076211;28;20213;-65
2022/03/26 00:14:33;;;;;;;42.95;26.77;;;9.50;65.10;;;;;;5076164;28;20202;-65
2022/03/26 00:17:01;;;;;;;43.00;25.77;;;9.50;65.40;;;;;;5075352;28;20209;-66
2022/03/26 00:19:28;;;;;;;40.15;26.92;;;9.50;65.30;;;;;;5076030;28;20229;-65
2022/03/26 00:21:55;;;;;;;40.35;26.10;;;9.50;65.20;;;;;;5076066;28;20660;-64
2022/03/26 00:24:22;;;;;;;39.80;25.23;;;9.50;65.80;;;;;;5076196;28;20293;-66
2022/03/26 00:26:49;;;;;;;43.53;25.90;;;9.40;65.80;;;;;;5074981;28;20206;-67
2022/03/26 00:29:16;;;;;;;38.28;25.83;;;9.40;65.80;;;;;;5074844;28;20227;-67
2022/03/26 00:31:42;;;;;;;38.42;26.10;;;9.40;66.30;;;;;;5075322;28;20209;-68
2022/03/26 00:34:11;;;;;;;38.13;25.55;;;9.30;66.60;;;;;;5074955;28;20213;-67
2022/03/26 00:36:38;;;;;;;40.35;26.33;;;9.30;66.70;;;;;;5075154;28;20207;-67
2022/03/26 00:39:05;;;;;;;38.47;25.45;;;9.30;66.70;;;;;;5074823;28;20229;-67
2022/03/26 00:41:32;;;;;;;41.38;25.42;;;9.20;67.20;;;;;;5075040;28;20199;-68
2022/03/26 00:43:59;;;;;;;44.35;27.30;;;9.10;67.50;;;;;;5074866;28;20202;-68
2022/03/26 00:46:27;;;;;;;42.55;25.77;;;9.10;67.40;;;;;;5074884;28;20213;-68
2022/03/26 00:48:56;;;;;;;38.63;25.30;;;9.10;67.20;;;;;;5075320;28;20230;-68
2022/03/26 00:51:24;;;;;;;39.80;25.95;;;9.10;67.50;;;;;;5075997;28;20202;-69
2022/03/26 00:53:51;;;;;;;39.72;25.50;;;9.00;67.40;;;;;;5075908;28;20293;-69
2022/03/26 00:56:17;;;;;;;41.80;25.38;;;9.00;67.80;;;;;;5074500;28;20572;-68
2022/03/26 00:58:44;;;;;;;38.83;26.23;;;9.00;69.20;;;;;;5074398;28;20237;-67
2022/03/26 01:01:11;;;;;;;38.63;25.30;;;9.00;68.70;;;;;;5074591;28;20204;-70
2022/03/26 01:03:39;;;;;;;39.60;25.38;;;9.00;68.70;;;;;;5075035;28;20207;-69
2022/03/26 01:06:05;;;;;;;42.63;26.20;;;8.90;68.70;;;;;;5074138;28;20212;-70
2022/03/26 01:08:33;;;;;;;42.00;25.98;;;8.90;69.30;;;;;;5074255;28;20225;-67
2022/03/26 01:11:00;;;;;;;41.70;26.25;;;8.80;69.30;;;;;;5073440;28;20235;-67
2022/03/26 01:13:28;;;;;;;40.20;25.45;;;8.80;69.60;;;;;;5074429;28;20272;-67
2022/03/26 01:15:55;;;;;;;39.90;25.65;;;8.80;69.70;;;;;;5074824;28;20210;-67
2022/03/26 01:18:23;;;;;;;40.03;26.05;;;8.80;69.70;;;;;;5074288;28;20223;-67
2022/03/26 01:20:50;;;;;;;39.47;25.13;;;8.90;70.00;;;;;;5074212;28;20663;-66
2022/03/26 01:23:19;;;;;;;40.70;24.73;;;8.80;70.00;;;;;;5074108;28;20202;-67
2022/03/26 01:25:47;;;;;;;37.55;25.15;;;8.70;70.20;;;;;;5073836;28;20209;-67
2022/03/26 01:28:16;;;;;;;41.45;26.13;;;8.70;70.50;;;;;;5073503;28;20738;-68
2022/03/26 01:30:43;;;;;;;38.97;25.90;;;8.70;70.60;;;;;;5074033;28;20218;-67
2022/03/26 01:33:10;;;;;;;41.40;26.73;;;8.70;71.00;;;;;;5074003;28;20199;-67
2022/03/26 01:35:37;;;;;;;42.00;26.33;;;8.70;71.40;;;;;;5073713;28;20203;-67
2022/03/26 01:38:05;;;;;;;40.17;26.17;;;8.60;71.20;;;;;;5073733;28;20226;-67
2022/03/26 01:40:33;;;;;;;41.25;26.50;;;8.60;71.50;;;;;;5073647;28;20676;-67
2022/03/26 01:43:01;;;;;;;42.40;25.38;;;8.60;71.90;;;;;;5073799;28;20208;-66
2022/03/26 01:45:29;;;;;;;40.25;25.63;;;8.60;72.20;;;;;;5073452;28;20206;-67
2022/03/26 01:47:57;;;;;;;39.85;25.20;;;8.50;72.50;;;;;;5073489;28;20231;-68
2022/03/26 01:50:24;;;;;;;40.30;26.05;;;8.40;72.50;;;;;;5074107;28;20226;-66
2022/03/26 01:52:51;;;;;;;39.08;25.23;;;8.40;73.00;;;;;;5073763;28;20213;-67
2022/03/26 01:55:18;;;;;;;40.25;25.13;;;8.30;73.20;;;;;;5073177;28;20202;-68
2022/03/26 01:57:45;;;;;;;41.17;25.80;;;8.30;73.40;;;;;;5073344;28;20225;-69
2022/03/26 02:00:14;;;;;;;42.10;26.08;;;8.30;73.70;;;;;;5073517;28;20312;-68
2022/03/26 02:02:43;;;;;;;38.90;24.73;;;8.30;73.70;;;;;;5073342;28;20756;-67
2022/03/26 02:05:10;;;;;;;43.25;25.77;;;8.30;73.90;;;;;;5073104;28;20198;-68
2022/03/26 02:07:39;;;;;;;38.83;24.65;;;8.20;73.90;;;;;;5072993;28;20708;-68
2022/03/26 02:10:08;;;;;;;42.05;24.73;;;8.20;74.10;;;;;;5073317;28;20622;-68
2022/03/26 02:12:35;;;;;;;38.88;25.58;;;8.30;74.30;;;;;;5073606;28;20627;-68
2022/03/26 02:15:02;;;;;;;38.10;24.17;;;8.30;74.00;;;;;;5073080;28;20199;-68
2022/03/26 02:17:30;;;;;;;37.53;25.02;;;8.20;74.30;;;;;;5072585;28;20288;-66
2022/03/26 02:19:59;;;;;;;35.90;25.10;;;8.20;74.90;;;;;;5072997;28;20205;-68
2022/03/26 02:22:27;;;;;;;39.15;25.40;;;8.10;74.80;;;;;;5072849;28;20577;-67
2022/03/26 02:24:54;;;;;;;43.03;24.75;;;8.00;75.10;;;;;;5072941;28;20202;-68
2022/03/26 02:27:22;;;;;;;39.67;25.10;;;7.90;75.40;;;;;;5072689;28;20226;-68
2022/03/26 02:29:50;;;;;;;39.72;25.33;;;7.90;76.00;;;;;;5073042;28;20680;-67
2022/03/26 02:32:19;;;;;;;39.78;25.92;;;8.00;76.50;;;;;;5072892;28;20207;-67
2022/03/26 02:34:47;;;;;;;40.55;24.75;;;7.90;76.70;;;;;;5072597;28;20259;-68
2022/03/26 02:37:16;;;;;;;36.25;23.65;;;7.80;77.00;;;;;;5072655;28;20206;-67
2022/03/26 02:39:43;;;;;;;39.60;25.45;;;7.80;76.80;;;;;;5072697;28;20199;-67
2022/03/26 02:42:10;;;;;;;38.72;25.83;;;7.80;76.90;;;;;;5073131;28;20667;-67
2022/03/26 02:44:37;;;;;;;39.65;25.17;;;7.80;77.10;;;;;;5072501;28;20203;-68
2022/03/26 02:47:05;;;;;;;39.75;23.95;;;7.80;77.30;;;;;;5072501;28;20272;-68
2022/03/26 02:49:32;;;;;;;37.38;24.73;;;7.80;77.50;;;;;;5072159;28;20225;-68
2022/03/26 02:51:58;;;;;;;38.88;24.70;;;7.70;77.80;;;;;;5072832;28;20209;-67
2022/03/26 02:54:27;;;;;;;37.85;24.48;;;7.70;78.00;;;;;;5072705;28;20297;-68
2022/03/26 02:56:55;;;;;;;39.10;24.27;;;7.70;78.00;;;;;;5072437;28;20298;-67
2022/03/26 02:59:22;;;;;;;37.35;25.45;;;7.70;78.60;;;;;;5072359;28;20268;-67
2022/03/26 03:01:49;;;;;;;39.35;24.77;;;7.70;78.90;;;;;;5072518;28;20214;-67
2022/03/26 03:04:16;;;;;;;40.47;23.70;;;7.60;79.30;;;;;;5072468;28;20217;-67
2022/03/26 03:06:43;;;;;;;36.85;23.67;;;7.60;79.20;;;;;;5072304;28;20198;-66
2022/03/26 03:09:10;;;;;;;38.60;25.25;;;7.60;79.20;;;;;;5072124;28;20726;-66
2022/03/26 03:11:38;;;;;;;41.17;25.77;;;7.50;79.10;;;;;;5072504;28;20261;-66
2022/03/26 03:14:06;;;;;;;38.20;23.75;;;7.50;79.70;;;;;;5072184;28;20218;-65
2022/03/26 03:16:33;;;;;;;35.38;24.25;;;7.50;80.20;;;;;;5072501;28;20218;-66
2022/03/26 03:19:00;;;;;;;37.47;23.35;;;7.40;80.20;;;;;;5072359;28;20226;-66
2022/03/26 03:21:27;;;;;;;35.97;25.15;;;7.40;80.40;;;;;;5072441;28;20230;-68
2022/03/26 03:23:54;;;;;;;39.83;24.35;;;7.40;80.90;;;;;;5072418;28;20316;-67
2022/03/26 03:26:21;;;;;;;41.33;25.00;;;7.40;80.90;;;;;;5072390;28;20289;-67
2022/03/26 03:28:49;;;;;;;36.50;23.85;;;7.30;80.80;;;;;;5071851;28;20745;-67
2022/03/26 03:31:16;;;;;;;36.70;22.88;;;7.30;80.60;;;;;;5072999;28;20227;-66
2022/03/26 03:33:42;;;;;;;37.05;22.63;;;7.30;80.90;;;;;;5072931;28;20245;-67
2022/03/26 03:36:09;;;;;;;39.72;24.38;;;7.30;81.30;;;;;;5076971;28;20213;-67
2022/03/26 03:38:36;;;;;;;35.25;22.25;;;7.20;81.40;;;;;;5077148;28;20310;-67
2022/03/26 03:41:03;;;;;;;34.72;21.73;;;7.30;81.70;;;;;;5077193;28;20624;-67
2022/03/26 03:43:30;;;;;;;36.65;23.90;;;7.30;81.80;;;;;;5076976;28;20294;-67
2022/03/26 03:45:58;;;;;;;34.30;22.58;;;7.20;82.00;;;;;;5077077;28;20202;-67
2022/03/26 03:48:25;;;;;;;34.83;23.23;;;7.20;82.20;;;;;;5076701;28;20218;-67
2022/03/26 03:50:51;;;;;;;43.10;24.45;;;7.20;82.50;;;;;;5077032;28;20317;-67
2022/03/26 03:53:18;;;;;;;34.00;22.58;;;7.20;82.80;;;;;;5076611;28;20756;-67
2022/03/26 03:55:45;;;;;;;32.60;22.77;;;7.10;82.60;;;;;;5076874;28;20215;-67
2022/03/26 03:58:12;;;;;;;42.67;25.00;;;7.10;82.80;;;;;;5076670;28;20309;-67
2022/03/26 04:00:39;;;;;;;37.53;23.10;;;7.20;82.70;;;;;;5076788;28;20560;-67
2022/03/26 04:03:07;;;;;;;35.90;23.10;;;7.20;82.60;;;;;;5076623;28;20293;-67
2022/03/26 04:05:34;;;;;;;37.30;22.83;;;7.20;82.50;;;;;;5076715;28;20202;-67
2022/03/26 04:08:00;;;;;;;39.55;22.75;;;7.20;83.00;;;;;;5076505;28;20222;-67
2022/03/26 04:10:27;;;;;;;35.58;22.75;;;7.10;83.00;;;;;;5076276;28;20229;-67
2022/03/26 04:12:54;;;;;;;33.00;22.85;;;7.10;83.70;;;;;;5076662;28;20199;-67
2022/03/26 04:15:21;;;;;;;34.78;23.27;;;7.00;83.40;;;;;;5076513;28;20301;-67
2022/03/26 04:17:51;;;;;;;37.20;22.83;;;7.00;83.80;;;;;;5076142;28;20227;-67
2022/03/26 04:20:19;;;;;;;35.92;22.00;;;7.00;83.90;;;;;;5076139;28;20252;-67
2022/03/26 04:22:46;;;;;;;37.50;23.83;;;7.00;84.00;;;;;;5076498;28;20206;-67
2022/03/26 04:25:13;;;;;;;35.47;24.65;;;6.90;84.40;;;;;;5076122;28;20198;-67
2022/03/26 04:27:43;;;;;;;34.47;23.13;;;6.90;84.70;;;;;;5076033;28;20592;-67
2022/03/26 04:30:11;;;;;;;35.17;23.75;;;6.90;84.80;;;;;;5076244;28;20265;-67
2022/03/26 04:32:38;;;;;;;33.88;22.88;;;6.90;84.40;;;;;;5076383;28;20203;-67
2022/03/26 04:35:06;;;;;;;37.33;22.80;;;6.90;84.40;;;;;;5075994;28;20205;-67
2022/03/26 04:37:34;;;;;;;42.42;24.40;;;6.90;84.90;;;;;;5075997;28;20222;-67
2022/03/26 04:40:01;;;;;;;38.22;23.92;;;6.90;85.10;;;;;;5075851;28;20298;-67
2022/03/26 04:42:28;;;;;;;36.47;23.00;;;6.80;84.90;;;;;;5076005;28;20198;-67
2022/03/26 04:44:55;;;;;;;39.78;24.15;;;6.80;84.90;;;;;;5075602;28;20207;-67
2022/03/26 04:47:22;;;;;;;36.78;24.02;;;6.80;85.10;;;;;;5074574;28;20298;-67
2022/03/26 04:49:49;;;;;;;38.22;23.75;;;6.80;85.40;;;;;;5075670;28;20205;-67
2022/03/26 04:52:16;;;;;;;39.40;24.15;;;6.70;85.60;;;;;;5075693;28;20746;-67
2022/03/26 04:54:44;;;;;;;41.08;24.80;;;6.70;86.30;;;;;;5075409;28;20203;-67
2022/03/26 04:57:12;;;;;;;42.35;24.00;;;6.70;86.40;;;;;;5075717;28;20207;-67
2022/03/26 04:59:39;;;;;;;32.28;22.10;;;6.70;86.40;;;;;;5075764;28;20206;-67
2022/03/26 05:02:06;;;;;;;40.70;24.05;;;6.80;86.00;;;;;;5075735;28;20571;-67
2022/03/26 05:04:33;;;;;;;38.28;22.70;;;6.50;85.60;;;;;;5075245;28;20293;-67
2022/03/26 05:07:00;;;;;;;36.72;21.00;;;6.60;86.00;;;;;;5075553;28;20205;-67
2022/03/26 05:09:26;;;;;;;35.85;23.52;;;6.60;86.10;;;;;;5075542;28;20226;-67
2022/03/26 05:11:56;;;;;;;41.28;24.88;;;6.70;86.20;;;;;;5075429;28;20227;-67
2022/03/26 05:14:23;;;;;;;38.38;23.63;;;6.70;86.80;;;;;;5075367;28;20238;-67
2022/03/26 05:16:50;;;;;;;38.88;22.73;;;6.70;86.40;;;;;;5075415;28;20306;-67
2022/03/26 05:19:16;;;;;;;38.72;22.75;;;6.70;86.50;;;;;;5075353;28;20222;-67
2022/03/26 05:21:43;;;;;;;41.10;24.77;;;6.80;86.50;;;;;;5075302;28;20195;-67
2022/03/26 05:24:10;;;;;;;40.45;24.65;;;6.80;86.50;;;;;;5074863;28;20234;-67
2022/03/26 05:26:37;;;;;;;38.47;24.65;;;6.70;86.90;;;;;;5074958;28;20205;-67
2022/03/26 05:29:07;;;;;;;38.85;24.35;;;6.70;87.00;;;;;;5074722;28;20708;-67
2022/03/26 05:31:34;;;;;;;40.42;25.85;;;6.70;87.50;;;;;;5075116;28;20216;-67
2022/03/26 05:34:01;;;;;;;37.72;26.08;;;6.60;87.50;;;;;;5074863;28;20203;-67
2022/03/26 05:36:28;;;;;;;38.13;25.35;;;6.60;87.70;;;;;;5074969;28;20209;-67
2022/03/26 05:38:55;;;;;;;39.47;24.20;;;6.70;87.80;;;;;;5074933;28;20227;-66
2022/03/26 05:41:22;;;;;;;45.47;27.00;;;6.70;87.70;;;;;;5074893;28;20215;-67
2022/03/26 05:43:49;;;;;;;38.10;24.88;;;6.80;87.60;;;;;;5074545;28;20238;-67
2022/03/26 05:46:17;;;;;;;42.50;25.38;;;6.80;88.20;;;;;;5074882;28;20561;-67
2022/03/26 05:48:45;;;;;;;39.40;25.13;;;6.90;87.70;;;;;;5074421;28;20229;-67
2022/03/26 05:51:12;;;;;;;41.50;26.55;;;6.90;87.80;;;;;;5074736;28;20290;-67
2022/03/26 05:53:40;;;;;;;39.47;25.35;;;6.90;88.10;;;;;;5074234;28;20203;-67
2022/03/26 05:56:07;;;;;;;42.17;26.15;;;7.00;87.80;;;;;;5074697;28;20203;-67
2022/03/26 05:58:34;;;;;;;41.28;26.33;;;7.00;89.30;;;;;;5073951;28;20223;-67
2022/03/26 06:01:01;;;;;;;38.90;25.80;;;7.00;88.60;;;;;;5074449;28;20572;-67
2022/03/26 06:03:29;;;;;;;43.92;27.08;;;7.00;89.20;;;;;;5074144;28;20293;-67
2022/03/26 06:05:58;;;;;;;37.75;24.73;;;7.00;90.10;;;;;;5074610;28;20209;-67
2022/03/26 06:08:25;;;;;;;38.45;25.50;;;7.00;88.90;;;;;;5074350;28;20573;-67
2022/03/26 06:10:52;;;;;;;39.28;25.75;;;7.00;89.30;;;;;;5074408;28;20229;-67
2022/03/26 06:13:18;;;;;;;42.42;25.45;;;7.00;90.10;;;;;;5074044;28;20298;-67
2022/03/26 06:15:45;;;;;;;38.95;25.95;;;7.00;90.10;;;;;;5074134;28;20651;-67
2022/03/26 06:18:13;;;;;;;40.88;26.42;;;6.90;89.20;;;;;;5074186;28;20226;-67
2022/03/26 06:20:42;;;;;;;43.95;28.15;;;6.90;89.50;;;;;;5074031;28;20242;-67
2022/03/26 06:23:09;;;;;;;37.22;24.65;;;6.90;90.20;;;;;;5074112;28;20202;-67
2022/03/26 06:25:36;;;;;;;40.15;26.20;;;6.70;90.10;;;;;;5074294;28;20206;-67
2022/03/26 06:28:03;;;;;;;45.42;26.48;;;6.70;90.50;;;;;;5073694;28;20601;-67
2022/03/26 06:30:30;;;;;;;40.33;26.65;;;6.70;92.80;;;;;;5073946;28;20203;-67
2022/03/26 06:32:57;;;;;;;41.17;26.30;;;6.80;93.30;;;;;;5073900;28;20285;-67
2022/03/26 06:35:24;;;;;;;43.17;26.92;;;6.90;92.40;;;;;;5073970;28;20209;-67
2022/03/26 06:37:52;;;;;;;43.10;27.08;;;7.00;91.70;;;;;;5073797;28;20588;-67
2022/03/26 06:40:19;;;;;;;40.90;27.52;;;7.20;91.80;;;;;;5074144;28;20198;-67
2022/03/26 06:42:46;;;;;;;41.38;26.65;;;7.30;91.20;;;;;;5073772;28;20257;-67
2022/03/26 06:45:12;;;;;;;42.60;26.73;;;7.40;90.40;;;;;;5073379;28;20294;-67
2022/03/26 06:47:39;;;;;;;42.03;27.83;;;7.60;90.20;;;;;;5073406;28;20735;-67
2022/03/26 06:50:06;;;;;;;48.42;28.15;;;7.60;90.20;;;;;;5073798;28;20297;-67
2022/03/26 06:52:33;;;;;;;46.55;29.52;;;7.70;90.20;;;;;;5073694;28;20199;-67
2022/03/26 06:55:02;;;;;;;44.58;27.40;;;7.70;90.20;;;;;;5073522;28;20209;-67
2022/03/26 06:57:29;;;;;;;43.80;27.95;;;7.80;89.90;;;;;;5073449;28;20269;-67
2022/03/26 06:59:55;;;;;;;38.10;25.65;;;8.00;88.90;;;;;;5073805;28;20294;-67
2022/03/26 07:02:22;;;;;;;38.90;27.25;;;8.00;87.60;;;;;;5073375;28;20313;-67
2022/03/26 07:04:49;;;;;;;41.45;26.73;;;8.10;86.30;;;;;;5073294;28;20202;-67
2022/03/26 07:07:16;;;;;;;37.30;25.73;;;8.10;85.80;;;;;;5073380;28;20631;-67
2022/03/26 07:09:43;;;;;;;40.63;26.17;;;8.20;84.90;;;;;;5072794;28;20202;-67
2022/03/26 07:12:12;;;;;;;36.05;24.27;;;8.30;83.80;;;;;;5073580;28;20199;-67
2022/03/26 07:14:39;;;;;;;37.63;26.55;;;8.40;83.90;;;;;;5073434;28;20215;-67
2022/03/26 07:17:07;;;;;;;45.28;27.77;;;8.50;82.60;;;;;;5073487;28;20213;-67
2022/03/26 07:19:34;;;;;;;39.22;26.95;;;8.50;82.80;;;;;;5073430;28;20618;-67
2022/03/26 07:22:01;;;;;;;44.90;27.27;;;8.40;82.10;;;;;;5073323;28;20225;-67
2022/03/26 07:24:27;;;;;;;44.97;28.00;;;8.50;82.60;;;;;;5073040;28;20591;-67
2022/03/26 07:26:54;;;;;;;40.03;28.35;;;8.50;84.20;;;;;;5073133;28;20205;-67
2022/03/26 07:29:22;;;;;;;44.47;27.42;;;8.30;82.00;;;;;;5073007;28;20735;-67
2022/03/26 07:31:49;;;;;;;37.22;25.83;;;8.20;81.40;;;;;;5073365;28;20201;-67
2022/03/26 07:34:17;;;;;;;46.40;26.00;;;8.30;82.90;;;;;;5072899;28;20207;-67
2022/03/26 07:36:43;;;;;;;41.03;26.98;;;8.20;83.30;;;;;;5073530;28;20206;-67
2022/03/26 07:39:10;;;;;;;45.40;25.85;;;8.10;84.10;;;;;;5072919;28;20314;-67
2022/03/26 07:41:37;;;;;;;44.78;26.52;;;8.10;84.40;;;;;;5073266;28;20650;-67
2022/03/26 07:44:05;;;;;;;40.53;26.45;;;8.10;84.50;;;;;;5073072;28;20299;-67
2022/03/26 07:46:33;;;;;;;39.33;26.75;;;8.20;84.30;;;;;;5073173;28;20209;-66
2022/03/26 07:49:00;;;;;;;38.10;27.35;;;8.20;84.70;;;;;;5073041;28;20223;-67
2022/03/26 07:51:27;;;;;;;44.05;27.25;;;8.30;85.20;;;;;;5073197;28;20201;-67
2022/03/26 07:53:54;;;;;;;41.00;26.45;;;8.40;85.50;;;;;;5072956;28;20206;-67
2022/03/26 07:56:21;;;;;;;40.25;28.77;;;8.60;86.30;;;;;;5072937;28;20210;-67
2022/03/26 07:58:49;;;;;;;39.95;26.50;;;8.80;85.30;;;;;;5073043;28;20218;-67
2022/03/26 08:01:16;;;;;;;42.35;26.58;;;9.10;82.70;;;;;;5073026;28;20207;-67
2022/03/26 08:03:44;;;;;;;41.67;25.50;;;9.20;81.60;;;;;;5072933;28;20235;-66
2022/03/26 08:06:11;;;;;;;39.17;26.35;;;9.40;81.70;;;;;;5072853;28;20635;-67
2022/03/26 08:08:40;;;;;;;42.00;26.63;;;9.50;78.60;;;;;;5072920;28;20222;-67
2022/03/26 08:11:07;;;;;;;43.00;26.92;;;9.50;80.40;;;;;;5072963;28;20213;-67
2022/03/26 08:13:34;;;;;;;46.58;27.35;;;9.60;77.60;;;;;;5072669;28;20241;-67
2022/03/26 08:16:01;;;;;;;39.13;26.48;;;9.70;77.80;;;;;;5072627;28;20213;-67
2022/03/26 08:18:27;;;;;;;39.05;25.40;;;9.80;78.70;;;;;;5072622;28;20229;-67
2022/03/26 08:20:56;;;;;;;35.75;24.38;;;9.90;76.90;;;;;;5074007;28;20198;-67
2022/03/26 08:23:22;;;;;;;39.10;25.63;;;9.90;75.60;;;;;;5076088;28;20318;-67
2022/03/26 08:28:33;;;;;;;40.75;26.48;;;9.90;74.70;;;;;;5076112;28;20229;-67
2022/03/26 08:31:00;;;;;;;41.08;25.90;;;9.90;75.10;;;;;;5076025;28;20199;-67
2022/03/26 08:33:27;;;;;;;42.92;23.50;;;9.90;75.80;;;;;;5076082;28;20199;-67
2022/03/26 08:35:55;;;;;;;36.22;24.67;;;9.90;74.10;;;;;;5076517;28;20209;-67
2022/03/26 08:38:22;;;;;;;36.78;23.05;;;10.10;72.00;;;;;;5075888;28;20233;-67
2022/03/26 08:40:49;;;;;;;37.78;25.77;;;10.30;72.00;;;;;;5076103;28;20207;-67
2022/03/26 08:43:16;;;;;;;39.58;25.02;;;10.40;70.10;;;;;;5075773;28;20225;-67
2022/03/26 08:45:43;;;;;;;42.10;23.67;;;10.50;70.10;;;;;;5075978;28;20209;-67
2022/03/26 08:48:10;;;;;;;40.58;24.73;;;10.60;69.90;;;;;;5075872;28;20232;-67
2022/03/26 08:50:37;;;;;;;37.50;24.55;;;10.90;70.50;;;;;;5075639;28;20684;-67
2022/03/26 08:53:05;;;;;;;36.35;24.63;;;11.10;68.00;;;;;;5075634;28;20208;-67
2022/03/26 08:55:32;;;;;;;37.83;25.20;;;11.10;66.00;;;;;;5075931;28;20199;-67
2022/03/26 08:57:59;;;;;;;37.88;24.85;;;11.20;66.20;;;;;;5075553;28;20423;-67
2022/03/26 09:00:26;;;;;;;35.47;24.52;;;11.60;66.30;;;;;;5075746;28;20298;-67
2022/03/26 09:02:53;;;;;;;39.85;24.50;;;12.00;65.60;;;;;;5075598;28;20223;-67
2022/03/26 09:05:20;;;;;;;35.78;24.38;;;12.10;64.90;;;;;;5075445;28;20580;-67
2022/03/26 09:07:47;;;;;;;41.25;24.92;;;12.10;63.40;;;;;;5075538;28;20309;-67
2022/03/26 09:10:15;;;;;;;43.58;25.40;;;12.10;63.70;;;;;;5075634;28;20310;-67
2022/03/26 09:12:42;;;;;;;36.53;24.08;;;12.10;63.60;;;;;;5075497;28;20638;-67
2022/03/26 09:15:09;;;;;;;36.90;24.52;;;12.00;64.70;;;;;;5075051;28;20668;-67
2022/03/26 09:17:37;;;;;;;37.65;25.52;;;12.10;64.40;;;;;;5075081;28;20709;-67
2022/03/26 09:20:04;;;;;;;38.08;24.20;;;12.20;64.10;;;;;;5075421;28;20236;-67
2022/03/26 09:22:31;;;;;;;38.30;26.27;;;12.60;62.80;;;;;;5075190;28;20218;-67
2022/03/26 09:24:58;;;;;;;37.45;25.25;;;12.90;62.70;;;;;;5075146;28;20560;-67
2022/03/26 09:27:26;;;;;;;38.95;26.08;;;13.10;62.30;;;;;;5074916;28;20242;-68
2022/03/26 09:29:53;;;;;;;33.70;24.23;;;13.20;61.20;;;;;;5075174;28;20593;-67
2022/03/26 09:32:20;;;;;;;35.90;26.38;;;13.20;63.10;;;;;;5074293;28;20199;-67
2022/03/26 09:34:48;;;;;;;41.97;26.98;;;13.20;61.40;;;;;;5074763;28;20203;-67
2022/03/26 09:37:15;;;;;;;40.97;26.80;;;13.20;62.20;;;;;;5074971;28;20210;-67
2022/03/26 09:39:42;;;;;;;42.08;26.52;;;13.30;62.30;;;;;;5074662;28;20203;-67
2022/03/26 09:42:10;;;;;;;36.58;25.63;;;12.90;61.00;;;;;;5074577;28;20233;-67
2022/03/26 09:44:39;;;;;;;36.72;26.75;;;12.90;61.90;;;;;;5075050;28;20256;-67
2022/03/26 09:47:06;;;;;;;38.00;25.75;;;13.00;61.80;;;;;;5074821;28;20199;-67
2022/03/26 09:49:33;;;;;;;42.00;26.60;;;13.20;62.10;;;;;;5074423;28;20219;-67
2022/03/26 09:52:00;;;;;;;36.20;26.75;;;13.70;61.60;;;;;;5074680;28;20204;-68
2022/03/26 09:54:27;;;;;;;39.60;26.75;;;14.90;59.20;;;;;;5074334;28;20210;-67
2022/03/26 09:56:54;;;;;;;34.63;26.55;;;16.00;57.40;;;;;;5074621;28;20199;-67
2022/03/26 09:59:21;;;;;;;36.40;27.50;;;17.20;54.70;;;;;;5074602;28;20647;-68
2022/03/26 10:01:50;;;;;;;34.00;27.00;;;18.10;52.00;;;;;;5074442;28;20227;-68
2022/03/26 10:04:20;;;;;;;39.00;28.40;;;19.10;50.10;;;;;;5074066;28;20446;-68
2022/03/26 10:06:49;;;;;;;34.63;25.92;;;19.00;48.10;;;;;;5074389;28;20453;-68
2022/03/26 10:09:26;;;;;;;34.10;27.10;;;19.20;50.00;;;;;;5074649;28;20229;-68
2022/03/26 10:11:59;;;;;;;36.10;28.20;;;19.80;48.20;;;;;;5074331;28;20569;-68
2022/03/26 10:14:40;;;;;;;37.93;28.40;;;20.20;46.90;;;;;;5074147;28;20788;-68
2022/03/26 10:17:17;;;;;;;38.63;28.20;;;20.20;46.90;;;;;;5074227;28;20454;-68
2022/03/26 10:19:45;;;;;;;37.13;27.63;;;20.50;45.30;;;;;;5074254;28;20440;-68
2022/03/26 10:22:33;;;;;;;33.47;27.60;;;20.90;44.80;;;;;;5074012;28;20514;-68
2022/03/26 10:25:04;;;;;;;36.93;30.17;;;21.90;43.70;;;;;;5073901;28;20473;-68
2022/03/26 10:27:36;;;;;;;33.40;28.20;;;22.10;41.10;;;;;;5073944;28;20540;-68
2022/03/26 10:30:05;;;;;;;37.83;29.40;;;21.50;42.50;;;;;;5074285;28;20425;-68
2022/03/26 10:32:41;;;;;;;35.30;27.90;;;22.10;42.20;;;;;;5073964;28;20614;-68
2022/03/26 10:35:21;;;;;;;38.60;29.47;;;22.00;41.30;;;;;;5073904;28;20438;-68
2022/03/26 10:37:56;;;;;;;35.80;29.07;;;21.30;42.00;;;;;;5073832;28;20469;-68
2022/03/26 10:40:29;;;;;;;37.37;28.13;;;22.10;41.60;;;;;;5074324;28;20433;-68
2022/03/26 10:43:04;;;;;;;39.13;28.87;;;22.40;40.00;;;;;;5073688;28;20480;-68
2022/03/26 10:45:33;;;;;;;40.77;29.90;;;22.60;39.70;;;;;;5074182;28;20453;-68
2022/03/26 10:48:02;;;;;;;36.13;28.13;;;21.60;39.80;;;;;;5073776;28;20479;-68
2022/03/26 10:50:35;;;;;;;33.83;26.80;;;21.30;41.10;;;;;;5073508;28;20966;-68
2022/03/26 10:53:07;;;;;;;35.57;26.53;;;21.60;41.00;;;;;;5073545;28;20945;-68
2022/03/26 10:55:34;;;;;;;34.17;26.07;;;21.30;40.50;;;;;;5073739;28;20524;-68
2022/03/26 10:58:05;;;;;;;32.47;24.40;;;21.50;38.80;;;;;;5073463;28;20494;-68
2022/03/26 11:00:32;;;;;;;30.50;25.80;;;21.30;38.50;;;;;;5073752;28;20494;-68
2022/03/26 11:03:00;;;;;;;32.70;24.77;;;21.60;38.30;;;;;;5073592;28;20477;-68
2022/03/26 11:05:29;;;;;;;33.33;27.33;;;22.20;37.70;;;;;;5073340;28;20955;-68
2022/03/26 11:07:57;;;;;;;30.80;26.17;;;23.00;37.00;;;;;;5073489;28;20510;-68
2022/03/26 11:10:25;;;;;;;30.17;24.43;;;24.20;36.40;;;;;;5073606;28;20444;-68
2022/03/26 11:12:53;;;;;;;35.33;25.30;;;25.60;34.60;;;;;;5073265;28;20941;-69
2022/03/26 11:15:24;;;;;;;30.93;27.57;;;26.70;32.90;;;;;;5073441;28;20792;-68
2022/03/26 11:18:06;;;;;;;31.50;26.90;;;26.50;31.10;;;;;;5073404;28;20552;-68
2022/03/26 11:20:57;;;;;;;34.33;27.70;;;26.20;31.40;;;;;;5073442;28;20437;-68
2022/03/26 11:23:32;;;;;;;29.00;25.70;;;25.50;32.20;;;;;;5073236;28;20483;-68
2022/03/26 11:26:21;;;;;;;30.07;25.70;;;;;;;;;;5073418;28;20440;-69
2022/03/26 11:29:12;;;;;;;28.47;24.50;;;26.60;31.60;;;;;;5068340;28;20491;-68
2022/03/26 11:31:46;;;;;;;29.73;25.37;;;26.90;30.20;;;;;;5073649;28;20445;-67
2022/03/26 11:34:18;;;;;;;34.10;27.43;;;26.60;30.70;;;;;;5073125;28;20591;-66
2022/03/26 11:36:45;;;;;;;30.57;26.10;;;25.60;29.60;;;;;;5073092;28;20523;-66
2022/03/26 11:39:14;;;;;;;28.20;25.20;;;25.10;32.00;;;;;;5072964;28;20469;-66
2022/03/26 11:41:42;;;;;;;31.67;25.10;;;25.20;31.40;;;;;;5073313;28;20459;-66
2022/03/26 11:44:10;;;;;;;28.00;23.90;;;25.20;31.10;;;;;;5073152;28;20444;-67
2022/03/26 11:52:24;;;;;;;23.07;20.40;;;23.60;31.20;;;;;;5073396;28;20780;-67
2022/03/26 11:54:56;;;;;;;21.03;18.40;;;23.60;32.10;;;;;;5070962;28;20462;-70
2022/03/26 11:57:24;;;;;;;26.37;20.20;;;23.50;33.30;;;;;;5074863;28;20987;-70
2022/03/26 11:59:52;;;;;;;30.30;23.23;;;23.70;32.50;;;;;;5075655;28;20475;-77
2022/03/26 12:02:22;;;;;;;25.50;21.50;;;23.80;32.10;;;;;;5075583;28;21008;-71
2022/03/26 12:04:53;;;;;;;24.87;22.00;;;23.70;32.50;;;;;;5075530;28;20833;-69
2022/03/26 12:07:22;;;;;;;26.83;21.73;;;23.90;32.60;;;;;;5075151;28;20809;-70
2022/03/26 12:10:04;;;;;;;29.77;22.30;;;23.20;32.70;;;;;;5074941;28;20456;-75
2022/03/26 12:12:46;;;;;;;25.47;21.33;;;22.60;33.10;;;;;;5075836;28;20518;-69
2022/03/26 12:15:27;;;;;;;27.77;20.80;;;21.90;34.40;;;;;;5075132;28;20456;-68
2022/03/26 12:17:55;;;;;;;24.73;19.73;;;21.60;34.50;;;;;;5075155;28;20493;-68
2022/03/26 12:20:26;;;;;;;22.23;19.40;;;21.40;35.10;;;;;;5074834;28;20452;-68
2022/03/26 12:23:03;;;;;;;21.77;19.17;;;20.90;34.20;;;;;;5075163;28;20480;-69
2022/03/26 12:25:35;;;;;;;23.77;18.80;;;20.70;33.80;;;;;;5075460;28;20451;-69
2022/03/26 12:28:02;;;;;;;21.73;16.80;;;20.50;34.10;;;;;;5074895;28;20505;-69
2022/03/26 12:30:29;;;;;;;25.30;18.33;;;20.40;34.80;;;;;;5074771;28;20489;-69
2022/03/26 12:32:58;;;;;;;22.67;16.93;;;20.10;33.40;;;;;;5074832;28;20484;-69
2022/03/26 12:35:27;;;;;;;22.50;16.80;;;19.70;34.20;;;;;;5075229;28;20449;-69
2022/03/26 12:37:54;;;;;;;24.87;18.77;;;19.80;35.50;;;;;;5074858;28;20987;-69
2022/03/26 12:40:21;;;;;;;22.80;18.30;;;20.00;35.00;;;;;;5074917;28;20455;-68
2022/03/26 12:42:54;;;;;;;21.90;17.80;;;20.20;35.10;;;;;;5075014;28;20448;-69
2022/03/26 12:45:21;;;;;;;23.60;18.70;;;20.30;34.20;;;;;;5074601;28;20442;-68
2022/03/26 12:47:49;;;;;;;22.40;17.10;;;20.20;33.30;;;;;;5074799;28;20563;-68